Time;durP1;ratioP1;P1;durP2;ratioP2;P2;SDS_P1;SDS_P2;PMS_P1;PMS_P2;Temp;Humidity;BMP_temperature;BMP_pressure;BME280_temperature;BME280_humidity;BME280_pressure;Samples;Min_cycle;Max_cycle;Signal;HPM_P1;HPM_P2
2021/12/17 00:01:15;;;;;;;19.67;10.17;;;;;;;0.88;100.00;60898.22;5074734;28;20477;-76
2021/12/17 00:03:48;;;;;;;15.13;8.97;;;;;;;1.26;100.00;60938.50;5074827;28;20443;-75
2021/12/17 00:06:42;;;;;;;15.33;9.00;;;;;;;2.66;100.00;61086.09;5075593;28;20438;-78
2021/12/17 00:09:10;;;;;;;17.33;9.80;;;;;;;0.99;100.00;60909.88;5075320;28;20462;-76
2021/12/17 00:11:37;;;;;;;16.43;9.00;;;;;;;1.43;100.00;60956.56;5075271;28;20494;-78
2021/12/17 00:14:06;;;;;;;13.17;8.17;;;;;;;2.70;100.00;61090.34;5074550;28;20953;-77
2021/12/17 00:16:38;;;;;;;12.70;7.73;;;;;;;2.65;100.00;61085.00;5074706;28;20434;-75
2021/12/17 00:19:22;;;;;;;15.80;8.47;;;;;;;2.71;100.00;61093.91;5074943;28;21024;-76
2021/12/17 00:46:32;;;;;;;13.23;8.47;;;;;;;2.54;100.00;61074.38;5032306;28;20807;-77
2021/12/17 00:50:02;;;;;;;15.00;7.07;;;;;;;2.48;100.00;61068.03;5075638;28;20430;-76
2021/12/17 00:52:32;;;;;;;14.10;7.47;;;;;;;2.41;100.00;61063.09;5086754;28;20446;-76
2021/12/17 00:55:06;;;;;;;13.43;8.10;;;;;;;2.55;100.00;61075.47;5074261;28;20455;-77
2021/12/17 01:00:22;;;;;;;10.57;6.77;;;;;;;1.39;100.00;60952.31;5073778;28;20486;-76
2021/12/17 01:02:51;;;;;;;14.10;8.10;;;;;;;0.92;100.00;60902.44;5073747;28;20451;-76
2021/12/17 01:05:26;;;;;;;14.03;8.17;;;;;;;2.56;100.00;61076.50;5073863;28;20426;-77
2021/12/17 01:07:55;;;;;;;12.53;7.77;;;;;;;2.55;100.00;61074.94;5074015;28;20442;-78
2021/12/17 01:10:27;;;;;;;11.13;6.63;;;;;;;2.62;100.00;61086.88;5073258;28;20949;-77
2021/12/17 01:12:56;;;;;;;12.50;7.80;;;;;;;2.61;100.00;61085.78;5073682;28;20442;-78
2021/12/17 01:15:24;;;;;;;12.93;7.70;;;;;;;1.56;100.00;60965.31;5073783;28;20499;-76
2021/12/17 01:18:11;;;;;;;11.53;6.80;;;;;;;2.63;100.00;61080.38;5073368;28;20504;-78
2021/12/17 01:21:09;;;;;;;11.90;7.03;;;;;;;2.76;100.00;61099.22;5073520;28;20489;-78
2021/12/17 01:24:02;;;;;;;11.47;6.33;;;;;;;2.72;100.00;61092.97;5074264;28;20860;-77
2021/12/17 01:43:12;;;;;;;9.30;5.63;;;;;;;2.81;100.00;61102.00;5073841;28;20488;-75
2021/12/17 01:49:06;;;;;;;9.00;5.53;;;;;;;2.83;100.00;61102.16;5073274;28;20453;-79
2021/12/17 02:00:02;;;;;;;10.83;5.33;;;;;;;2.86;100.00;61107.34;5072817;28;20485;-79
2021/12/17 02:02:37;;;;;;;8.90;5.40;;;;;;;2.84;100.00;61105.72;5073157;28;20469;-77
2021/12/17 02:05:04;;;;;;;8.40;5.03;;;;;;;1.45;100.00;60961.19;5073950;28;20863;-77
2021/12/17 02:07:33;;;;;;;9.17;5.43;;;;;;;-1.00;100.00;60703.69;5072965;28;20442;-77
2021/12/17 02:21:20;;;;;;;9.07;5.03;;;;;;;2.98;100.00;61120.09;5072201;28;21061;-77
2021/12/17 02:32:35;;;;;;;8.00;4.90;;;;;;;3.00;100.00;61122.72;5056650;28;20515;-76
2021/12/17 02:37:52;;;;;;;8.77;4.87;;;;;;;2.69;100.00;61089.25;5061437;28;20485;-76
2021/12/17 02:45:48;;;;;;;9.63;5.30;;;;;;;3.02;100.00;61121.81;5072410;28;20433;-76
2021/12/17 02:48:18;;;;;;;8.33;4.97;;;;;;;3.08;100.00;61133.22;5071965;28;20484;-77
2021/12/17 02:50:53;;;;;;;7.67;5.07;;;;;;;3.12;100.00;61134.97;5072975;28;20461;-77
2021/12/17 02:53:24;;;;;;;7.93;5.17;;;;;;;2.52;100.00;61067.25;5072266;28;20442;-76
2021/12/17 02:56:00;;;;;;;8.90;5.43;;;;;;;3.12;100.00;61134.97;5071664;28;20493;-76
2021/12/17 02:58:31;;;;;;;7.97;5.10;;;;;;;3.05;100.00;61130.03;5071404;28;20438;-77
2021/12/17 03:01:05;;;;;;;9.27;5.13;;;;;;;3.09;100.00;61131.78;5071736;28;20490;-76
2021/12/17 03:03:36;;;;;;;7.70;5.03;;;;;;;3.01;100.00;61120.75;5080118;28;20882;-77
2021/12/17 03:06:03;;;;;;;9.67;5.43;;;;;;;1.72;100.00;60987.31;5075725;28;20845;-77
2021/12/17 03:08:32;;;;;;;9.17;5.40;;;;;;;3.24;100.00;61145.22;5071494;28;20447;-76
2021/12/17 03:11:01;;;;;;;7.80;5.27;;;;;;;3.13;100.00;61131.00;5071839;28;20941;-79
2021/12/17 03:13:32;;;;;;;8.67;5.30;;;;;;;3.14;100.00;61139.63;5071804;28;20891;-77
2021/12/17 03:16:05;;;;;;;10.60;5.63;;;;;;;1.96;100.00;61022.31;5071515;28;20483;-77
2021/12/17 03:18:58;;;;;;;10.40;5.37;;;;;;;3.19;100.00;61142.41;5072133;28;20439;-78
2021/12/17 03:24:18;;;;;;;11.87;6.37;;;;;;;3.21;100.00;61144.53;5071362;28;20840;-76
2021/12/17 03:26:50;;;;;;;8.23;5.40;;;;;;;3.24;100.00;61142.69;5071321;28;20932;-76
2021/12/17 03:29:28;;;;;;;10.83;5.90;;;;;;;3.18;100.00;61141.34;5071375;28;20474;-76
2021/12/17 03:32:01;;;;;;;9.40;5.53;;;;;;;1.43;100.00;60956.56;5071577;28;20443;-76
2021/12/17 03:34:44;;;;;;;9.20;5.30;;;;;;;3.12;100.00;61132.47;5071794;28;20477;-75
2021/12/17 03:37:12;;;;;;;8.93;5.63;;;;;;;3.09;100.00;61132.31;5070722;28;20485;-76
2021/12/17 03:39:52;;;;;;;13.73;6.97;;;;;;;3.11;100.00;61133.91;5071287;28;21014;-77
2021/12/17 03:42:23;;;;;;;11.70;6.50;;;;;;;1.56;100.00;60975.38;5071936;28;20443;-78
2021/12/17 03:45:02;;;;;;;12.17;6.53;;;;;;;3.07;100.00;61130.19;5072297;28;20441;-74
2021/12/17 03:47:30;;;;;;;12.07;7.23;;;;;;;3.01;100.00;61123.28;5071046;28;20435;-78
2021/12/17 03:52:41;;;;;;;11.93;7.23;;;;;;;2.94;100.00;61118.34;5071049;28;20458;-77
2021/12/17 03:55:10;;;;;;;14.10;7.33;;;;;;;2.94;100.00;61113.84;5071329;28;20534;-76
2021/12/17 03:57:48;;;;;;;12.20;7.27;;;;;;;3.10;100.00;61138.41;5070869;28;20504;-75
2021/12/17 04:00:16;;;;;;;12.57;7.47;;;;;;;1.75;100.00;60993.03;5070880;28;20474;-76
2021/12/17 04:02:49;;;;;;;12.50;7.37;;;;;;;1.36;100.00;60944.63;5070339;28;20454;-76
2021/12/17 04:05:16;;;;;;;10.47;6.30;;;;;;;1.38;100.00;60953.75;5071454;28;20444;-75
2021/12/17 04:07:45;;;;;;;12.70;7.33;;;;;;;3.00;100.00;61125.25;5071196;28;20453;-75
2021/12/17 04:10:48;;;;;;;11.40;6.27;;;;;;;3.11;100.00;61136.41;5071914;28;20450;-78
2021/12/17 04:13:30;;;;;;;9.83;5.93;;;;;;;2.01;100.00;61020.63;5070236;28;21049;-75
2021/12/17 04:16:02;;;;;;;10.57;6.27;;;;;;;3.11;100.00;61133.91;5071568;28;20496;-77
2021/12/17 04:18:38;;;;;;;12.53;6.93;;;;;;;3.08;100.00;61130.72;5070862;28;20531;-76
2021/12/17 04:21:13;;;;;;;11.67;6.23;;;;;;;2.18;100.00;61038.66;5070989;28;20915;-76
2021/12/17 04:23:46;;;;;;;11.50;6.80;;;;;;;1.52;100.00;60973.63;5071546;28;20474;-77
2021/12/17 04:26:17;;;;;;;10.57;7.00;;;;;;;2.73;100.00;61093.50;5071379;28;20466;-77
2021/12/17 04:28:54;;;;;;;10.73;6.40;;;;;;;1.54;100.00;60973.25;5071387;28;20487;-77
2021/12/17 04:31:27;;;;;;;11.23;6.50;;;;;;;2.87;100.00;61110.91;5070719;28;20474;-77
2021/12/17 04:33:58;;;;;;;12.30;7.40;;;;;;;2.91;100.00;61112.63;5052853;28;20452;-77
2021/12/17 04:36:30;;;;;;;13.73;6.80;;;;;;;2.98;100.00;61122.59;5070754;28;20454;-77
2021/12/17 04:38:58;;;;;;;13.57;7.60;;;;;;;2.96;100.00;61117.97;5070612;28;20543;-77
2021/12/17 04:44:17;;;;;;;11.17;7.30;;;;;;;3.04;100.00;61123.94;5069183;28;20956;-76
2021/12/17 04:46:52;;;;;;;12.23;7.03;;;;;;;1.93;100.00;61009.63;5074303;28;20464;-77
2021/12/17 04:57:44;;;;;;;12.97;7.00;;;;;;;1.90;100.00;61008.94;5074200;28;20432;-75
2021/12/17 05:00:23;;;;;;;9.67;6.57;;;;;;;3.11;100.00;61136.94;5056092;28;20451;-78
2021/12/17 05:02:55;;;;;;;10.50;6.03;;;;;;;2.26;100.00;61044.66;5073926;28;20834;-75
2021/12/17 05:05:26;;;;;;;10.67;6.17;;;;;;;2.15;100.00;61038.00;5076617;28;20999;-77
2021/12/17 05:08:03;;;;;;;9.00;6.10;;;;;;;3.07;100.00;61129.66;5074584;28;20446;-78
2021/12/17 05:10:49;;;;;;;9.80;6.23;;;;;;;3.11;100.00;61136.94;5074136;28;20485;-76
2021/12/17 05:19:03;;;;;;;11.13;7.07;;;;;;;1.59;100.00;60976.03;5049637;28;20453;-76
2021/12/17 05:21:31;;;;;;;12.30;7.20;;;;;;;2.95;100.00;61117.44;5055779;28;20486;-79
2021/12/17 05:23:58;;;;;;;12.00;7.40;;;;;;;1.49;100.00;60962.94;5073789;28;20442;-79
2021/12/17 05:26:25;;;;;;;12.60;7.17;;;;;;;2.76;100.00;61099.22;5073961;28;20434;-75
2021/12/17 05:28:55;;;;;;;11.73;7.30;;;;;;;2.66;100.00;61086.59;5073811;28;20438;-77
2021/12/17 05:31:27;;;;;;;11.83;6.97;;;;;;;2.39;100.00;61057.94;5073834;28;20587;-77
2021/12/17 05:34:01;;;;;;;9.67;6.57;;;;;;;3.10;100.00;61132.84;5073714;28;20912;-78
2021/12/17 05:36:30;;;;;;;13.60;7.70;;;;;;;2.19;100.00;61037.22;5073535;28;20463;-76
2021/12/17 05:39:01;;;;;;;12.67;8.03;;;;;;;2.32;100.00;61053.53;5073132;28;20611;-80
2021/12/17 05:41:39;;;;;;;15.97;9.97;;;;;;;2.83;100.00;61109.16;5073265;28;21028;-76
2021/12/17 05:44:09;;;;;;;13.77;8.63;;;;;;;3.22;100.00;61140.56;5073489;28;20485;-79
2021/12/17 05:46:50;;;;;;;12.67;7.73;;;;;;;1.67;100.00;60985.06;5073221;28;20439;-77
2021/12/17 05:49:21;;;;;;;14.17;8.50;;;;;;;2.98;100.00;61125.13;5073169;28;20434;-79
2021/12/17 05:51:50;;;;;;;16.30;10.20;;;;;;;3.11;100.00;61136.41;5073382;28;20496;-75
2021/12/17 05:54:20;;;;;;;16.60;10.60;;;;;;;2.17;100.00;61035.09;5073442;28;20529;-77
2021/12/17 05:56:49;;;;;;;14.60;10.20;;;;;;;3.38;100.00;61165.13;5072754;28;20590;-77
2021/12/17 05:59:20;;;;;;;13.17;7.90;;;;;;;3.36;100.00;61160.47;5072762;28;20515;-76
2021/12/17 06:02:21;;;;;;;12.17;7.73;;;;;;;3.29;100.00;61153.56;5072330;28;20493;-77
2021/12/17 06:04:59;;;;;;;14.47;8.33;;;;;;;3.22;100.00;61146.13;5054478;28;21002;-77
2021/12/17 06:07:32;;;;;;;15.20;9.10;;;;;;;1.94;100.00;61015.69;5072656;28;20477;-77
2021/12/17 06:10:03;;;;;;;13.93;9.20;;;;;;;2.96;100.00;61118.47;5072588;28;20446;-76
2021/12/17 06:12:36;;;;;;;14.00;8.03;;;;;;;3.11;100.00;61133.91;5072988;28;20434;-77
2021/12/17 06:15:08;;;;;;;14.90;9.27;;;;;;;1.97;100.00;61013.88;5074545;28;20441;-77
2021/12/17 06:17:56;;;;;;;12.70;8.30;;;;;;;3.12;100.00;61135.50;5072607;28;20450;-77
2021/12/17 06:20:30;;;;;;;13.77;8.63;;;;;;;3.10;100.00;61132.84;5069856;28;20443;-77
2021/12/17 06:23:01;;;;;;;12.57;7.77;;;;;;;2.06;100.00;61025.38;5072363;28;20839;-77
2021/12/17 06:25:28;;;;;;;14.07;7.77;;;;;;;3.11;100.00;61128.88;5072122;28;20446;-78
2021/12/17 06:28:22;;;;;;;16.87;9.00;;;;;;;3.06;100.00;61131.63;5072298;28;20454;-78
2021/12/17 06:30:52;;;;;;;14.03;8.33;;;;;;;3.05;100.00;61130.03;5072629;28;20870;-79
2021/12/17 06:33:26;;;;;;;12.90;8.70;;;;;;;0.41;100.00;60844.44;5072508;28;20446;-78
2021/12/17 06:36:00;;;;;;;15.00;8.40;;;;;;;1.52;100.00;60969.16;5071167;28;20446;-78
2021/12/17 06:38:37;;;;;;;13.57;8.07;;;;;;;2.20;100.00;61033.25;5049946;28;20482;-77
2021/12/17 06:41:09;;;;;;;12.50;8.03;;;;;;;2.32;100.00;61055.50;5050240;28;20531;-77
2021/12/17 06:43:39;;;;;;;11.03;7.03;;;;;;;3.21;100.00;61147.03;5050787;28;20439;-77
2021/12/17 06:46:19;;;;;;;11.40;6.80;;;;;;;2.26;100.00;61031.56;5051283;28;20496;-77
2021/12/17 06:48:55;;;;;;;13.17;7.50;;;;;;;3.23;100.00;61146.66;5050803;28;20450;-77
2021/12/17 06:59:52;;;;;;;9.73;5.27;;;;;;;2.68;100.00;61088.22;5050980;28;20446;-75
2021/12/17 07:11:13;;;;;;;7.87;4.60;;;;;;;2.78;100.00;61101.34;5029418;28;20926;-77
2021/12/17 07:22:27;;;;;;;11.27;6.20;;;;;;;2.17;100.00;61030.09;5035759;28;20494;-77
2021/12/17 07:33:15;;;;;;;8.70;5.50;;;;;;;1.56;100.00;60965.31;5052857;28;20532;-77
2021/12/17 07:35:55;;;;;;;10.73;6.40;;;;;;;3.28;100.00;61155.00;5051634;28;20471;-75
2021/12/17 07:38:39;;;;;;;5.73;4.00;;;;;;;3.08;100.00;61130.72;5063788;28;20851;-77
2021/12/17 07:41:19;;;;;;;10.43;6.50;;;;;;;3.29;100.00;61153.03;5071664;28;20480;-76
2021/12/17 07:43:58;;;;;;;10.00;7.20;;;;;;;3.34;100.00;61158.34;5072017;28;20430;-78
2021/12/17 07:46:51;;;;;;;10.23;6.67;;;;;;;3.23;100.00;61149.72;5072488;28;20437;-78
2021/12/17 07:49:23;;;;;;;10.07;6.53;;;;;;;1.93;100.00;61017.16;5054727;28;20530;-77
2021/12/17 07:51:52;;;;;;;9.97;6.40;;;;;;;3.23;100.00;61147.19;5071539;28;20995;-77
2021/12/17 08:00:37;;;;;;;9.47;6.30;;;;;;;3.28;100.00;61151.97;5071762;28;20515;-75
2021/12/17 08:03:07;;;;;;;10.93;6.80;;;;;;;3.27;100.00;61151.44;5071043;28;20539;-78
2021/12/17 08:05:53;;;;;;;11.03;6.33;;;;;;;3.31;100.00;61155.16;5053634;28;20526;-78
2021/12/17 08:11:38;;;;;;;10.50;6.93;;;;;;;3.27;100.00;61153.41;5071439;28;20999;-78
2021/12/17 08:17:47;;;;;;;10.87;7.20;;;;;;;3.27;100.00;61156.47;5071666;28;20936;-77
2021/12/17 08:23:45;;;;;;;12.63;8.03;;;;;;;3.25;100.00;61146.25;5075511;28;21026;-77
2021/12/17 08:26:13;;;;;;;12.23;7.50;;;;;;;3.29;100.00;61153.03;5075877;28;20516;-76
2021/12/17 08:34:35;;;;;;;12.30;8.33;;;;;;;3.24;100.00;61147.72;5076085;28;20951;-76
2021/12/17 08:37:09;;;;;;;11.43;7.60;;;;;;;3.41;100.00;61165.78;5075122;28;20516;-78
2021/12/17 08:39:36;;;;;;;17.80;8.50;;;;;;;3.27;100.00;61151.44;5057705;28;20438;-77
2021/12/17 08:42:03;;;;;;;11.10;7.20;;;;;;;3.51;100.00;61176.41;5074411;28;20482;-76
2021/12/17 08:44:33;;;;;;;12.17;8.37;;;;;;;2.13;100.00;61035.34;5074355;28;20485;-75
2021/12/17 08:47:10;;;;;;;11.93;7.27;;;;;;;3.64;100.00;61190.25;5075299;28;20468;-77
2021/12/17 08:50:04;;;;;;;9.10;5.90;;;;;;;3.63;100.00;61191.69;5074993;28;20534;-78
2021/12/17 08:52:34;;;;;;;11.60;7.37;;;;;;;3.67;100.00;61195.97;5057359;28;20439;-77
2021/12/17 08:55:04;;;;;;;9.97;6.87;;;;;;;3.68;100.00;61194.50;5075650;28;20476;-76
2021/12/17 08:57:33;;;;;;;9.80;6.97;;;;;;;3.73;100.00;61202.34;5074516;28;20510;-77
2021/12/17 09:00:19;;;;;;;10.67;7.70;;;;;;;3.66;100.00;61191.84;5074706;28;20500;-77
2021/12/17 09:02:59;;;;;;;11.40;7.30;;;;;;;2.90;100.00;61114.63;5074798;28;20539;-78
2021/12/17 09:05:31;;;;;;;9.00;5.73;;;;;;;3.96;100.00;61226.28;5057354;28;20465;-76
2021/12/17 09:08:04;;;;;;;9.60;6.03;;;;;;;4.01;100.00;61227.09;5074594;28;20423;-76
2021/12/17 09:10:33;;;;;;;11.53;6.80;;;;;;;4.17;100.00;61248.63;5074039;28;20446;-78
2021/12/17 09:13:03;;;;;;;8.00;5.37;;;;;;;4.06;100.00;61234.41;5074608;28;20554;-77
2021/12/17 09:15:31;;;;;;;11.87;7.53;;;;;;;4.13;100.00;61242.38;5055763;28;20478;-77
2021/12/17 09:18:00;;;;;;;12.37;6.70;;;;;;;3.02;100.00;61124.34;5073830;28;20964;-77
2021/12/17 09:20:30;;;;;;;9.00;5.80;;;;;;;4.20;100.00;61249.84;5074089;28;20441;-78
2021/12/17 09:23:06;;;;;;;10.37;7.13;;;;;;;4.31;100.00;61260.47;5073802;28;20823;-78
2021/12/17 09:25:37;;;;;;;12.33;8.07;;;;;;;4.34;100.00;61263.66;5073937;28;20518;-77
2021/12/17 09:28:16;;;;;;;8.00;5.90;;;;;;;4.19;100.00;61245.69;5074282;28;20442;-77
2021/12/17 09:30:44;;;;;;;10.87;7.20;;;;;;;3.24;100.00;61147.72;5074570;28;20438;-79
2021/12/17 09:33:11;;;;;;;9.20;6.13;;;;;;;4.47;100.00;61277.50;5075135;28;20438;-77
2021/12/17 09:35:52;;;;;;;11.90;7.73;;;;;;;4.35;100.00;61264.72;5075047;28;20454;-76
2021/12/17 09:38:30;;;;;;;10.87;7.50;;;;;;;3.30;100.00;61149.06;5082786;28;20497;-76
2021/12/17 09:40:59;;;;;;;11.27;6.70;;;;;;;4.35;100.00;61267.78;5078208;28;20529;-75
2021/12/17 09:43:32;;;;;;;10.50;6.73;;;;;;;4.43;100.00;61273.75;5075502;28;20510;-76
2021/12/17 09:46:01;;;;;;;10.00;7.33;;;;;;;3.45;100.00;61180.13;5074910;28;21036;-77
2021/12/17 09:48:28;;;;;;;9.57;6.90;;;;;;;3.92;100.00;61219.50;5075500;28;20530;-77
2021/12/17 09:51:07;;;;;;;9.97;6.70;;;;;;;4.42;100.00;61275.22;5075386;28;20451;-77
2021/12/17 09:53:36;;;;;;;9.30;7.00;;;;;;;2.92;100.00;61116.22;5057973;28;20443;-77
2021/12/17 09:56:04;;;;;;;10.73;7.27;;;;;;;3.17;100.00;61140.28;5057042;28;20813;-76
2021/12/17 09:58:33;;;;;;;10.23;6.93;;;;;;;4.50;100.00;61280.69;5074924;28;20431;-76
2021/12/17 10:01:01;;;;;;;10.27;7.13;;;;;;;4.27;100.00;61257.28;5056827;28;20471;-76
2021/12/17 10:03:29;;;;;;;9.27;6.80;;;;;;;4.73;100.00;61300.66;5074128;28;20566;-76
2021/12/17 10:06:00;;;;;;;9.40;6.57;;;;;;;4.42;100.00;61272.19;5075181;28;20457;-77
2021/12/17 10:08:29;;;;;;;9.50;6.23;;;;;;;2.97;100.00;61122.06;5074667;28;20478;-75
2021/12/17 10:10:59;;;;;;;12.20;7.97;;;;;;;3.28;100.00;61154.50;5074976;28;20435;-76
2021/12/17 10:13:31;;;;;;;14.37;6.93;;;;;;;4.59;100.00;61290.28;5074860;28;20461;-78
2021/12/17 10:18:46;;;;;;;10.80;7.20;;;;;;;4.68;100.00;61300.38;5072973;28;20442;-78
2021/12/17 10:21:23;;;;;;;9.50;6.17;;;;;;;4.67;100.00;61298.78;5074789;28;20549;-76
2021/12/17 10:23:53;;;;;;;10.73;7.67;;;;;;;4.77;100.00;61314.50;5074331;28;20486;-76
2021/12/17 10:26:28;;;;;;;10.73;6.83;;;;;;;4.95;100.00;61328.63;5073957;28;20482;-77
2021/12/17 10:28:57;;;;;;;11.97;7.87;;;;;;;4.39;100.00;61271.50;5074135;28;20456;-78
2021/12/17 10:31:27;;;;;;;14.07;7.90;;;;;;;5.02;100.00;61336.06;5074428;28;20442;-76
2021/12/17 10:33:58;;;;;;;9.03;6.17;;;;;;;4.04;100.00;61232.28;5074979;28;20447;-77
2021/12/17 10:36:32;;;;;;;9.47;6.57;;;;;;;4.85;100.00;61323.53;5073976;28;20467;-76
2021/12/17 10:39:01;;;;;;;10.40;6.50;;;;;;;3.81;100.00;61202.75;5074081;28;20473;-74
2021/12/17 10:41:32;;;;;;;9.03;6.43;;;;;;;4.23;100.00;61258.06;5075129;28;20989;-78
2021/12/17 10:44:08;;;;;;;8.93;5.87;;;;;;;3.82;100.00;61204.38;5074486;28;20454;-77
2021/12/17 10:46:56;;;;;;;7.70;4.17;;;;;;;4.15;100.00;61249.00;5074453;28;20446;-78
2021/12/17 10:52:40;;;;;;;7.27;5.87;;;;;;;5.11;100.00;61345.66;5077347;28;20881;-78
2021/12/17 10:55:17;;;;;;;10.10;6.07;;;;;;;5.05;100.00;61339.25;5074968;28;20438;-78
2021/12/17 10:57:44;;;;;;;10.13;5.30;;;;;;;3.64;100.00;61195.28;5074297;28;20521;-80
2021/12/17 11:00:16;;;;;;;10.93;6.57;;;;;;;5.25;100.00;61360.56;5074086;28;20521;-76
2021/12/17 11:02:50;;;;;;;15.33;8.00;;;;;;;5.21;100.00;61353.25;5074296;28;20870;-79
2021/12/17 11:05:25;;;;;;;8.97;6.53;;;;;;;3.90;100.00;61217.91;5073514;28;20442;-79
2021/12/17 11:07:59;;;;;;;8.90;5.80;;;;;;;4.77;100.00;61314.50;5072903;28;20913;-77
2021/12/17 11:10:33;;;;;;;9.17;6.57;;;;;;;5.20;100.00;61355.22;5072061;28;20442;-76
2021/12/17 11:13:17;;;;;;;7.60;5.60;;;;;;;5.14;100.00;61351.38;5054862;28;20976;-77
2021/12/17 11:15:46;;;;;;;7.27;5.70;;;;;;;4.41;100.00;61271.63;5055776;28;20575;-77
2021/12/17 11:18:19;;;;;;;6.20;4.93;;;;;;;3.38;100.00;61158.09;5073905;28;20439;-79
2021/12/17 11:20:50;;;;;;;7.67;6.00;;;;;;;4.61;100.00;61292.41;5073821;28;20439;-78
2021/12/17 11:23:40;;;;;;;6.60;5.23;;;;;;;4.94;100.00;61327.53;5073718;28;20489;-76
2021/12/17 11:26:08;;;;;;;8.63;5.40;;;;;;;3.76;100.00;61213.09;5073114;28;20449;-77
2021/12/17 11:28:37;;;;;;;5.67;3.77;;;;;;;4.55;100.00;61286.03;5073136;28;20442;-77
2021/12/17 11:31:06;;;;;;;8.00;5.47;;;;;;;4.07;100.00;61232.94;5054337;28;20446;-79
2021/12/17 11:33:37;;;;;;;8.63;5.80;;;;;;;5.49;100.00;61386.13;5072907;28;20446;-78
2021/12/17 11:36:06;;;;;;;9.43;5.57;;;;;;;5.40;100.00;61381.59;5072618;28;20470;-77
2021/12/17 11:38:47;;;;;;;8.70;6.13;;;;;;;5.54;100.00;61391.47;5073187;28;20475;-79
2021/12/17 11:41:16;;;;;;;7.07;4.80;;;;;;;4.38;100.00;61265.94;5072747;28;20434;-77
2021/12/17 11:43:54;;;;;;;6.83;4.13;;;;;;;4.20;100.00;61254.34;5072518;28;20558;-77
2021/12/17 11:46:29;;;;;;;6.47;5.10;;;;;;;5.30;100.00;61365.88;5079832;28;20455;-76
2021/12/17 11:49:00;;;;;;;6.40;5.27;;;;;;;5.15;100.00;61350.44;5076024;28;20446;-79
2021/12/17 11:51:32;;;;;;;8.10;5.27;;;;;;;3.81;100.00;61208.34;5072710;28;20913;-78
2021/12/17 11:54:07;;;;;;;6.57;4.40;;;;;;;4.22;100.00;61246.91;5074276;28;20454;-77
2021/12/17 11:56:41;;;;;;;6.30;3.73;;;;;;;4.99;100.00;61332.88;5076752;28;20430;-75
2021/12/17 11:59:35;;;;;;;8.47;3.70;;;;;;;3.57;100.00;61180.28;5076554;28;20504;-78
2021/12/17 12:02:08;;;;;;;6.23;3.63;;;;;;;3.93;100.00;61221.09;5076389;28;20442;-76
2021/12/17 12:04:55;;;;;;;6.47;3.90;;;;;;;4.77;100.00;61314.50;5076156;28;20928;-76
2021/12/17 12:07:36;;;;;;;5.13;3.97;;;;;;;4.87;100.00;61320.09;5076343;28;20473;-77
2021/12/17 12:10:21;;;;;;;4.77;3.40;;;;;;;4.86;100.00;61319.03;5076584;28;20438;-78
2021/12/17 12:12:58;;;;;;;6.23;3.30;;;;;;;4.48;100.00;61273.53;5076274;28;20442;-76
2021/12/17 12:15:37;;;;;;;7.00;4.07;;;;;;;4.53;100.00;61284.41;5076269;28;20948;-77
2021/12/17 12:18:09;;;;;;;7.00;4.30;;;;;;;4.67;100.00;61298.78;5076757;28;20419;-76
2021/12/17 12:20:46;;;;;;;3.40;2.27;;;;;;;4.53;100.00;61283.91;5075859;28;20438;-79
2021/12/17 12:23:19;;;;;;;5.17;3.73;;;;;;;4.27;100.00;61257.28;5074652;28;20476;-76
2021/12/17 12:26:08;;;;;;;7.37;4.40;;;;;;;4.35;100.00;61265.25;5074918;28;20446;-77
2021/12/17 12:28:56;;;;;;;6.30;4.10;;;;;;;4.37;100.00;61267.38;5074759;28;20461;-76
2021/12/17 12:35:08;;;;;;;6.70;4.20;;;;;;;4.32;100.00;61262.06;5073947;28;20484;-78
2021/12/17 12:37:38;;;;;;;5.00;3.53;;;;;;;3.89;100.00;61211.81;5074854;28;20517;-77
2021/12/17 12:40:16;;;;;;;6.23;4.73;;;;;;;4.29;100.00;61264.44;5075058;28;20443;-76
2021/12/17 12:42:55;;;;;;;6.27;4.20;;;;;;;4.12;100.00;61243.84;5075331;28;20485;-77
2021/12/17 12:45:24;;;;;;;7.07;4.40;;;;;;;3.29;100.00;61153.56;5075341;28;20449;-75
2021/12/17 12:54:29;;;;;;;6.03;4.30;;;;;;;3.46;100.00;61170.56;5077344;28;20446;-78
2021/12/17 12:57:40;;;;;;;5.77;4.40;;;;;;;4.28;100.00;61258.34;5075647;28;20438;-76
2021/12/17 13:00:15;;;;;;;4.40;3.20;;;;;;;3.30;100.00;61154.09;5074676;28;20446;-77
2021/12/17 13:02:56;;;;;;;5.67;3.67;;;;;;;4.37;100.00;61266.88;5057786;28;20560;-77
2021/12/17 13:05:27;;;;;;;5.57;3.10;;;;;;;4.06;100.00;61234.41;5074597;28;20435;-76
2021/12/17 13:07:58;;;;;;;3.53;2.77;;;;;;;3.18;100.00;61143.88;5075905;28;20600;-76
2021/12/17 13:10:29;;;;;;;4.07;2.90;;;;;;;4.32;100.00;61261.53;5078061;28;20442;-80
2021/12/17 13:13:03;;;;;;;4.07;2.70;;;;;;;4.24;100.00;61259.13;5085523;28;20442;-77
2021/12/17 13:15:44;;;;;;;4.63;3.00;;;;;;;3.53;100.00;61178.56;5095921;28;20433;-76
2021/12/17 13:23:52;;;;;;;4.97;3.33;;;;;;;3.82;100.00;61203.84;5076521;28;20598;-75
2021/12/17 13:26:24;;;;;;;3.83;2.83;;;;;;;4.54;100.00;61284.94;5078980;28;20481;-77
2021/12/17 13:29:05;;;;;;;4.17;3.23;;;;;;;4.63;100.00;61294.53;5078383;28;20968;-78
2021/12/17 13:31:52;;;;;;;4.17;2.53;;;;;;;4.51;100.00;61284.81;5077532;28;20439;-77
2021/12/17 13:34:26;;;;;;;8.03;3.60;;;;;;;4.49;100.00;61279.63;5075951;28;20426;-77
2021/12/17 13:37:02;;;;;;;5.30;3.27;;;;;;;4.34;100.00;61263.66;5076230;28;20479;-77
2021/12/17 13:39:34;;;;;;;6.57;3.50;;;;;;;4.40;100.00;61270.03;5075609;28;20469;-78
2021/12/17 13:42:02;;;;;;;6.70;3.50;;;;;;;4.37;100.00;61269.91;5076703;28;21040;-76
2021/12/17 13:44:39;;;;;;;4.43;2.80;;;;;;;4.33;100.00;61262.59;5076443;28;20540;-77
2021/12/17 13:47:22;;;;;;;8.83;5.77;;;;;;;4.36;100.00;61266.31;5076456;28;20426;-78
2021/12/17 13:49:52;;;;;;;7.20;4.17;;;;;;;4.28;100.00;61258.34;5055120;28;20530;-77
2021/12/17 13:52:24;;;;;;;7.30;3.67;;;;;;;3.64;100.00;61187.75;5076995;28;20438;-76
2021/12/17 13:54:58;;;;;;;5.90;3.73;;;;;;;3.94;100.00;61227.22;5076882;28;20454;-78
2021/12/17 13:57:30;;;;;;;11.80;5.63;;;;;;;2.76;100.00;61101.75;5087184;28;20480;-76
2021/12/17 14:00:16;;;;;;;4.83;3.50;;;;;;;4.02;100.00;61225.63;5077324;28;20451;-78
2021/12/17 14:02:50;;;;;;;6.43;4.00;;;;;;;4.13;100.00;61244.91;5073884;28;20805;-76
2021/12/17 14:05:25;;;;;;;6.03;3.67;;;;;;;3.87;100.00;61214.72;5076180;28;20431;-76
2021/12/17 14:10:36;;;;;;;6.57;3.77;;;;;;;3.03;100.00;61125.41;5074236;28;20477;-79
2021/12/17 14:13:16;;;;;;;5.60;3.67;;;;;;;2.31;100.00;61055.00;5073233;28;20454;-78
2021/12/17 14:15:45;;;;;;;4.77;3.10;;;;;;;2.43;100.00;61065.22;5074129;28;20454;-77
2021/12/17 14:18:18;;;;;;;4.70;3.70;;;;;;;2.41;100.00;61060.06;5073419;28;20438;-76
2021/12/17 14:20:49;;;;;;;4.93;3.60;;;;;;;4.03;100.00;61234.25;5072894;28;20446;-77
2021/12/17 14:23:19;;;;;;;6.77;3.90;;;;;;;2.49;100.00;61069.09;5072604;28;20474;-78
2021/12/17 14:25:52;;;;;;;9.33;4.23;;;;;;;2.51;100.00;61076.25;5072939;28;20435;-77
2021/12/17 14:28:23;;;;;;;4.50;2.73;;;;;;;2.77;100.00;61102.78;5072937;28;20438;-76
2021/12/17 14:31:00;;;;;;;4.27;3.33;;;;;;;2.22;100.00;61044.91;5072561;28;20508;-78
2021/12/17 14:33:35;;;;;;;5.23;3.13;;;;;;;3.85;100.00;61212.59;5072821;28;20980;-76
2021/12/17 14:36:08;;;;;;;5.30;4.10;;;;;;;3.74;100.00;61197.84;5072329;28;20519;-76
2021/12/17 14:38:43;;;;;;;7.83;4.50;;;;;;;2.28;100.00;61049.28;5074129;28;20481;-77
2021/12/17 14:41:14;;;;;;;6.83;4.30;;;;;;;2.32;100.00;61053.53;5072440;28;20512;-77
2021/12/17 14:43:50;;;;;;;4.40;3.10;;;;;;;2.88;100.00;61109.97;5072397;28;20479;-76
2021/12/17 14:46:23;;;;;;;4.97;3.57;;;;;;;3.34;100.00;61158.88;5072447;28;20450;-75
2021/12/17 14:49:24;;;;;;;4.50;3.33;;;;;;;3.16;100.00;61144.25;5071724;28;20442;-76
2021/12/17 14:58:06;;;;;;;8.83;5.20;;;;;;;1.96;100.00;61017.81;5072223;28;20560;-78
2021/12/17 15:00:32;;;;;;;11.90;6.10;;;;;;;3.41;100.00;61165.78;5071629;28;20441;-77
2021/12/17 15:03:08;;;;;;;6.40;4.60;;;;;;;2.33;100.00;61051.56;5071710;28;20498;-76
2021/12/17 15:05:40;;;;;;;10.60;5.20;;;;;;;3.39;100.00;61163.66;5072362;28;20508;-78
2021/12/17 15:08:08;;;;;;;8.33;5.13;;;;;;;3.31;100.00;61155.16;5072154;28;20438;-79
2021/12/17 15:13:33;;;;;;;6.67;4.30;;;;;;;2.53;100.00;61075.84;5074621;28;20447;-78
2021/12/17 15:16:08;;;;;;;5.77;4.20;;;;;;;3.04;100.00;61126.47;5077240;28;20441;-77
2021/12/17 15:18:45;;;;;;;5.23;3.47;;;;;;;3.29;100.00;61153.03;5075331;28;20446;-77